Time;durP1;ratioP1;P1;durP2;ratioP2;P2;SDS_P1;SDS_P2;PMS_P1;PMS_P2;Temp;Humidity;BMP_temperature;BMP_pressure;BME280_temperature;BME280_humidity;BME280_pressure;Samples;Min_cycle;Max_cycle;Signal;HPM_P1;HPM_P2
2022/04/01 00:00:22;;;;;;;0.20;0.10;;;14.00;39.30;;;;;;5133764;27;20238;-69
2022/04/01 00:02:48;;;;;;;0.65;0.20;;;14.00;39.30;;;;;;5115508;27;20027;-69
2022/04/01 00:05:16;;;;;;;0.73;0.20;;;14.10;39.30;;;;;;5115184;27;20122;-70
2022/04/01 00:07:42;;;;;;;1.02;0.20;;;14.10;39.30;;;;;;5133639;27;20047;-68
2022/04/01 00:10:09;;;;;;;0.20;0.10;;;14.30;39.20;;;;;;5133536;27;20031;-70
2022/04/01 00:12:40;;;;;;;0.50;0.15;;;14.50;39.00;;;;;;5133963;27;20110;-69
2022/04/01 00:15:07;;;;;;;1.65;0.10;;;14.70;38.70;;;;;;5114981;27;20043;-69
2022/04/01 00:17:33;;;;;;;0.20;0.10;;;15.00;38.40;;;;;;5115027;27;20096;-69
2022/04/01 00:19:58;;;;;;;0.30;0.10;;;15.20;38.00;;;;;;5115177;27;20039;-70
2022/04/01 00:22:24;;;;;;;1.20;0.10;;;15.60;37.60;;;;;;5115269;27;20386;-69
2022/04/01 00:24:49;;;;;;;0.47;0.15;;;15.90;37.10;;;;;;5133278;27;20039;-69
2022/04/01 00:27:15;;;;;;;0.30;0.10;;;16.30;36.60;;;;;;5114917;27;20039;-69
2022/04/01 00:29:41;;;;;;;0.75;0.20;;;16.60;36.20;;;;;;5133167;27;20050;-71
2022/04/01 00:32:07;;;;;;;1.00;0.20;;;16.80;35.80;;;;;;5115095;27;20039;-69
2022/04/01 00:34:34;;;;;;;0.30;0.10;;;17.00;35.50;;;;;;5133104;27;20035;-67
2022/04/01 00:37:02;;;;;;;0.20;0.10;;;17.20;35.10;;;;;;5133098;27;20043;-69
2022/04/01 00:39:30;;;;;;;0.73;0.10;;;17.50;34.80;;;;;;5114782;27;20031;-68
2022/04/01 00:41:57;;;;;;;0.32;0.10;;;17.70;34.50;;;;;;5114975;27;20383;-69
2022/04/01 00:44:25;;;;;;;1.80;0.20;;;17.80;34.20;;;;;;5114816;27;20035;-69
2022/04/01 00:46:56;;;;;;;0.28;0.10;;;18.00;33.90;;;;;;5133019;27;20054;-71
2022/04/01 00:49:23;;;;;;;0.70;0.20;;;18.10;33.70;;;;;;5114680;27;20061;-71
2022/04/01 00:51:51;;;;;;;0.43;0.10;;;18.20;33.50;;;;;;5132745;27;20153;-68
2022/04/01 00:54:17;;;;;;;0.30;0.10;;;18.30;33.30;;;;;;5114492;28;20502;-71
2022/04/01 00:56:44;;;;;;;0.38;0.10;;;18.40;33.10;;;;;;5132346;27;20059;-69
2022/04/01 00:59:10;;;;;;;0.32;0.10;;;18.50;32.90;;;;;;5114458;28;20043;-71
2022/04/01 01:01:38;;;;;;;0.32;0.10;;;18.60;32.80;;;;;;5114380;28;20497;-70
2022/04/01 01:04:05;;;;;;;0.57;0.10;;;18.70;32.70;;;;;;5132919;28;20074;-69
2022/04/01 01:06:33;;;;;;;0.40;0.10;;;18.80;32.50;;;;;;5132951;28;20043;-69
2022/04/01 01:08:59;;;;;;;0.50;0.10;;;18.90;32.30;;;;;;5114562;28;20043;-69
2022/04/01 01:11:26;;;;;;;0.38;0.10;;;18.90;32.20;;;;;;5114557;28;20051;-71
2022/04/01 01:13:53;;;;;;;0.55;0.10;;;19.00;32.20;;;;;;5114647;28;20375;-70
2022/04/01 01:16:19;;;;;;;1.08;0.10;;;19.10;32.10;;;;;;5114096;28;20042;-69
2022/04/01 01:18:57;;;;;;;0.32;0.10;;;19.10;32.00;;;;;;5132528;28;20072;-70
2022/04/01 01:21:23;;;;;;;1.02;0.10;;;19.10;31.90;;;;;;5114207;28;20043;-68
2022/04/01 01:23:49;;;;;;;0.30;0.10;;;19.20;31.90;;;;;;5114279;28;20126;-70
2022/04/01 01:26:18;;;;;;;0.20;0.10;;;19.20;31.70;;;;;;5114161;28;20043;-69
2022/04/01 01:28:45;;;;;;;1.92;0.10;;;19.30;31.50;;;;;;5114500;28;20050;-69
2022/04/01 01:31:10;;;;;;;0.30;0.10;;;19.40;31.50;;;;;;5132523;28;20140;-70
2022/04/01 01:33:36;;;;;;;0.65;0.10;;;19.40;31.50;;;;;;5114378;28;20122;-70
2022/04/01 01:36:02;;;;;;;0.40;0.10;;;19.50;31.40;;;;;;5113892;28;20044;-70
2022/04/01 01:38:27;;;;;;;0.20;0.10;;;19.50;31.40;;;;;;5114368;28;20042;-72
2022/04/01 01:40:54;;;;;;;0.38;0.10;;;19.60;31.30;;;;;;5114051;28;20501;-71
2022/04/01 01:43:20;;;;;;;0.40;0.10;;;19.60;31.20;;;;;;5114365;28;20050;-71
2022/04/01 01:45:46;;;;;;;0.35;0.17;;;19.60;31.10;;;;;;5114053;28;20627;-69
2022/04/01 01:48:11;;;;;;;1.10;0.10;;;19.70;31.10;;;;;;5113882;28;20141;-71
2022/04/01 01:56:08;;;;;;;0.20;0.00;;;19.70;30.90;;;;;;5113551;28;20044;-70
2022/04/01 01:58:34;;;;;;;0.75;0.10;;;19.70;30.90;;;;;;5113867;28;20048;-70
2022/04/01 02:01:00;;;;;;;0.38;0.10;;;19.80;30.90;;;;;;5132486;28;20038;-69
2022/04/01 02:03:29;;;;;;;1.08;0.10;;;19.70;30.90;;;;;;5115410;27;20533;-70
2022/04/01 02:05:54;;;;;;;0.30;0.10;;;19.80;30.70;;;;;;5117914;27;20039;-70
2022/04/01 02:08:20;;;;;;;0.60;0.10;;;19.80;30.70;;;;;;5117532;27;20441;-70
2022/04/01 02:10:46;;;;;;;0.40;0.10;;;19.80;30.70;;;;;;5136610;27;20125;-69
2022/04/01 02:13:12;;;;;;;0.75;0.10;;;19.70;30.50;;;;;;5117574;27;20039;-70
2022/04/01 02:15:38;;;;;;;1.42;0.10;;;19.70;30.60;;;;;;5136017;27;20462;-70
2022/04/01 02:18:04;;;;;;;0.55;0.10;;;19.60;30.70;;;;;;5135911;27;20067;-70
2022/04/01 02:20:31;;;;;;;1.55;0.10;;;19.50;30.70;;;;;;5117329;27;20053;-69
2022/04/01 02:23:00;;;;;;;0.50;0.10;;;19.40;30.70;;;;;;5135634;27;20639;-68
2022/04/01 02:25:25;;;;;;;0.82;0.10;;;19.40;30.80;;;;;;5135665;27;20401;-68
2022/04/01 02:27:51;;;;;;;1.00;0.10;;;19.40;30.90;;;;;;5117012;27;20039;-69
2022/04/01 02:30:17;;;;;;;0.10;0.00;;;19.30;30.90;;;;;;5117348;27;20039;-71
2022/04/01 02:32:47;;;;;;;0.65;0.00;;;19.40;30.90;;;;;;5117056;27;20049;-70
2022/04/01 02:35:12;;;;;;;0.45;0.10;;;19.50;30.80;;;;;;5116998;27;20064;-70
2022/04/01 02:37:39;;;;;;;0.35;0.10;;;19.50;30.80;;;;;;5135534;27;20035;-71
2022/04/01 02:40:06;;;;;;;0.20;0.10;;;19.60;30.80;;;;;;5116896;27;20047;-67
2022/04/01 02:42:33;;;;;;;0.43;0.10;;;19.60;30.70;;;;;;5117118;27;20031;-69
2022/04/01 02:45:01;;;;;;;1.00;0.30;;;19.60;30.60;;;;;;5135267;27;20035;-70
2022/04/01 02:47:27;;;;;;;0.55;0.20;;;19.70;30.70;;;;;;5116990;27;20054;-70
2022/04/01 02:49:54;;;;;;;1.08;0.10;;;19.70;30.60;;;;;;5116936;27;20051;-69
2022/04/01 02:52:19;;;;;;;0.50;0.20;;;19.70;30.60;;;;;;5116882;27;20043;-70
2022/04/01 02:54:48;;;;;;;0.30;0.10;;;19.70;30.50;;;;;;5116626;27;20082;-70
2022/04/01 02:57:14;;;;;;;1.67;0.10;;;19.70;30.40;;;;;;5134669;27;20064;-68
2022/04/01 02:59:40;;;;;;;0.20;0.03;;;19.80;30.50;;;;;;5101465;28;20388;-70
2022/04/01 03:02:05;;;;;;;1.13;0.10;;;19.80;30.50;;;;;;5078993;28;20419;-72
2022/04/01 03:04:31;;;;;;;0.85;0.10;;;19.80;30.40;;;;;;5096003;28;20043;-72
2022/04/01 03:06:57;;;;;;;1.35;0.10;;;19.90;30.30;;;;;;5096269;28;20028;-68
2022/04/01 03:09:23;;;;;;;0.43;0.10;;;19.90;30.40;;;;;;5095985;28;20050;-70
2022/04/01 03:11:49;;;;;;;0.40;0.10;;;19.90;30.40;;;;;;5114142;28;20039;-69
2022/04/01 03:14:15;;;;;;;0.30;0.10;;;19.90;30.40;;;;;;5095974;28;20707;-70
2022/04/01 03:16:41;;;;;;;0.35;0.10;;;19.80;30.30;;;;;;5095728;28;20043;-69
2022/04/01 03:19:09;;;;;;;0.90;0.10;;;19.80;30.30;;;;;;5114112;28;20031;-70
2022/04/01 03:21:38;;;;;;;1.13;0.20;;;19.80;30.40;;;;;;5096055;28;20035;-70
2022/04/01 03:24:04;;;;;;;0.25;0.10;;;19.80;30.30;;;;;;5113965;28;20119;-70
2022/04/01 03:26:29;;;;;;;0.60;0.10;;;19.80;30.30;;;;;;5094793;28;20118;-70
2022/04/01 03:28:55;;;;;;;0.63;0.10;;;19.80;31.20;;;;;;5113584;28;20077;-71
2022/04/01 03:31:22;;;;;;;0.20;0.05;;;19.80;30.30;;;;;;5095692;28;20463;-71
2022/04/01 03:33:48;;;;;;;0.52;0.10;;;19.70;30.30;;;;;;5113904;28;20031;-70
2022/04/01 03:36:13;;;;;;;0.20;0.10;;;19.80;30.40;;;;;;5095378;28;20444;-70
2022/04/01 03:38:42;;;;;;;0.75;0.15;;;19.80;30.40;;;;;;5095412;28;20046;-70
2022/04/01 03:41:08;;;;;;;0.40;0.10;;;19.80;30.40;;;;;;5095264;28;20031;-68
2022/04/01 03:43:35;;;;;;;0.38;0.00;;;19.80;30.40;;;;;;5095298;28;20036;-70
2022/04/01 03:46:05;;;;;;;0.70;0.10;;;19.80;30.30;;;;;;5095480;28;20363;-70
2022/04/01 03:51:18;;;;;;;0.45;0.08;;;19.80;30.30;;;;;;5065772;27;20387;-70
2022/04/01 03:54:01;;;;;;;;;;;19.80;30.20;;;;;;5171246;27;20087;-70
2022/04/01 03:56:31;;;;;;;0.35;0.10;;;19.80;30.30;;;;;;5064418;28;20333;-67
2022/04/01 03:59:02;;;;;;;0.82;0.17;;;19.80;30.30;;;;;;5064707;27;20059;-70
2022/04/01 04:01:28;;;;;;;0.50;0.10;;;19.80;30.30;;;;;;5064645;27;20420;-69
2022/04/01 04:03:56;;;;;;;0.55;0.10;;;19.80;30.30;;;;;;5064591;28;20073;-67
2022/04/01 04:06:23;;;;;;;0.50;0.00;;;19.80;30.20;;;;;;5064360;28;20041;-71
2022/04/01 04:08:55;;;;;;;0.43;0.10;;;19.80;30.20;;;;;;5063500;27;20036;-71
2022/04/01 04:11:24;;;;;;;0.43;0.25;;;19.80;30.20;;;;;;5064323;28;20429;-70
2022/04/01 04:13:52;;;;;;;0.65;0.10;;;19.80;30.20;;;;;;5064488;28;20039;-69
2022/04/01 04:16:29;;;;;;;0.35;0.10;;;19.80;30.20;;;;;;5065460;28;20045;-69
2022/04/01 04:21:52;;;;;;;0.40;0.10;;;19.80;30.10;;;;;;5130266;27;20298;-70
2022/04/01 04:24:24;;;;;;;0.65;0.10;;;19.80;30.10;;;;;;5129057;28;20088;-70
2022/04/01 04:26:51;;;;;;;0.47;0.10;;;19.90;30.10;;;;;;5129121;28;20104;-70
2022/04/01 04:29:18;;;;;;;0.85;0.10;;;20.00;30.10;;;;;;5128922;28;20134;-70
2022/04/01 04:34:43;;;;;;;0.43;0.10;;;20.00;30.00;;;;;;5153042;27;1163711;-70
2022/04/01 04:37:11;;;;;;;0.55;0.10;;;20.20;30.00;;;;;;5153427;27;20272;-71
2022/04/01 04:39:39;;;;;;;0.60;0.20;;;20.20;30.60;;;;;;5153070;27;20042;-67
2022/04/01 04:42:09;;;;;;;0.52;0.10;;;20.20;29.90;;;;;;5153259;27;20050;-70
2022/04/01 04:44:36;;;;;;;0.20;0.00;;;20.20;29.90;;;;;;5152945;27;20106;-72
2022/04/01 04:47:05;;;;;;;0.65;0.10;;;20.10;29.80;;;;;;5153023;27;20550;-71
2022/04/01 04:49:31;;;;;;;0.50;0.15;;;20.10;29.90;;;;;;5153324;27;20034;-71
2022/04/01 04:51:58;;;;;;;0.40;0.10;;;20.10;29.90;;;;;;5152798;27;20038;-72
2022/04/01 04:54:25;;;;;;;0.43;0.10;;;20.00;29.90;;;;;;5171475;27;20435;-71
2022/04/01 04:56:53;;;;;;;0.40;0.10;;;19.90;29.90;;;;;;5152782;27;20062;-68
2022/04/01 04:59:22;;;;;;;1.23;0.10;;;19.90;29.90;;;;;;5171237;27;20469;-70
2022/04/01 05:02:05;;;;;;;0.57;0.20;;;19.90;29.90;;;;;;5152699;27;20035;-71
2022/04/01 05:07:29;;;;;;;0.47;0.10;;;19.80;29.90;;;;;;5130325;27;20407;-70
2022/04/01 05:12:52;;;;;;;0.30;0.10;;;19.60;29.80;;;;;;5150997;27;20461;-72
2022/04/01 05:15:24;;;;;;;0.55;0.10;;;19.60;30.00;;;;;;5129273;28;20051;-70
2022/04/01 05:18:21;;;;;;;0.40;0.10;;;19.70;30.00;;;;;;5130250;27;20066;-70
2022/04/01 05:21:01;;;;;;;0.93;0.13;;;19.70;29.90;;;;;;5128824;28;20493;-70
2022/04/01 05:26:14;;;;;;;0.30;0.10;;;19.70;29.90;;;;;;5089386;27;20425;-71
2022/04/01 05:28:48;;;;;;;0.32;0.10;;;19.70;29.80;;;;;;5087086;28;20044;-71
2022/04/01 05:34:08;;;;;;;0.50;0.10;;;19.80;29.90;;;;;;5152715;27;1161876;-74
2022/04/01 05:36:36;;;;;;;0.50;0.10;;;19.90;30.10;;;;;;5169308;27;20275;-69
2022/04/01 05:39:03;;;;;;;1.17;0.00;;;19.90;30.20;;;;;;5170132;27;20049;-69
2022/04/01 05:41:30;;;;;;;1.38;0.00;;;19.90;30.20;;;;;;5161082;27;20038;-71
2022/04/01 05:43:57;;;;;;;0.57;0.10;;;20.00;30.20;;;;;;5155556;27;20092;-72
2022/04/01 05:46:25;;;;;;;0.80;0.10;;;20.00;30.40;;;;;;5159192;27;20046;-73
2022/04/01 05:48:53;;;;;;;0.65;0.10;;;20.10;30.40;;;;;;5179784;27;20041;-73
2022/04/01 05:51:19;;;;;;;3.40;0.10;;;20.10;30.40;;;;;;5175801;27;20081;-73
2022/04/01 05:53:52;;;;;;;0.30;0.10;;;20.10;30.60;;;;;;5174916;27;20373;-74
2022/04/01 05:56:19;;;;;;;0.63;0.10;;;20.10;30.70;;;;;;5133321;27;20045;-68
2022/04/01 05:58:44;;;;;;;0.22;0.00;;;20.10;30.60;;;;;;5150765;27;20105;-73
2022/04/01 06:04:35;;;;;;;0.25;0.10;;;20.20;30.70;;;;;;5065062;28;20444;-74
2022/04/01 06:07:09;;;;;;;0.85;0.10;;;20.30;30.80;;;;;;5073903;28;20094;-73
2022/04/01 06:12:52;;;;;;;0.52;0.00;;;20.40;30.50;;;;;;5057069;28;20435;-73
2022/04/01 06:15:32;;;;;;;0.63;0.10;;;20.40;30.50;;;;;;5035002;28;20136;-72
2022/04/01 06:18:23;;;;;;;1.02;0.20;;;20.50;30.50;;;;;;5044025;28;20037;-69
2022/04/01 06:20:53;;;;;;;0.82;0.20;;;20.60;30.50;;;;;;5059893;28;20044;-72
2022/04/01 06:23:43;;;;;;;0.30;0.10;;;20.60;30.40;;;;;;5060249;28;20104;-73
2022/04/01 06:26:13;;;;;;;0.38;0.20;;;20.60;30.60;;;;;;5034616;28;20053;-72
2022/04/01 06:28:53;;;;;;;0.38;0.00;;;20.60;30.80;;;;;;5064274;28;20120;-72
2022/04/01 06:31:22;;;;;;;;;;;20.70;31.20;;;;;;5062003;28;20041;-72
2022/04/01 06:34:14;;;;;;;1.75;0.10;;;20.70;31.00;;;;;;5031873;28;19984;-71
2022/04/01 06:36:44;;;;;;;0.50;0.10;;;20.60;29.90;;;;;;5031615;28;20037;-73
2022/04/01 06:39:13;;;;;;;1.55;0.13;;;20.60;29.70;;;;;;5060095;28;20117;-72
2022/04/01 06:41:57;;;;;;;0.75;0.20;;;20.50;29.40;;;;;;5027467;28;20064;-73
2022/04/01 06:44:23;;;;;;;4.32;0.22;;;20.40;29.20;;;;;;5031892;28;20052;-72
2022/04/01 06:46:50;;;;;;;2.60;0.20;;;20.40;29.50;;;;;;5020421;28;20054;-74
2022/04/01 06:49:16;;;;;;;1.65;0.20;;;20.40;29.70;;;;;;5033691;28;20556;-75
2022/04/01 06:51:42;;;;;;;1.38;0.15;;;20.50;29.70;;;;;;5028016;28;20040;-73
2022/04/01 06:54:08;;;;;;;2.45;0.22;;;20.50;29.60;;;;;;5026219;28;20592;-77
2022/04/01 06:56:34;;;;;;;1.88;0.13;;;20.60;29.60;;;;;;5031440;28;20042;-71
2022/04/01 06:59:00;;;;;;;0.60;0.10;;;20.70;29.80;;;;;;5026417;28;20087;-71
2022/04/01 07:01:26;;;;;;;0.98;0.10;;;20.90;29.90;;;;;;5022665;28;20485;-71
2022/04/01 07:03:53;;;;;;;2.50;0.10;;;21.00;29.90;;;;;;5030410;28;20714;-71
2022/04/01 07:06:20;;;;;;;1.38;0.03;;;21.10;29.80;;;;;;5027299;28;20102;-75
2022/04/01 07:08:47;;;;;;;2.13;0.08;;;21.20;29.70;;;;;;5026596;28;20033;-74
2022/04/01 07:11:14;;;;;;;0.40;0.00;;;21.30;29.70;;;;;;5061314;28;20729;-74
2022/04/01 07:13:40;;;;;;;0.98;0.10;;;21.40;29.70;;;;;;5029679;28;20071;-76
2022/04/01 07:16:06;;;;;;;1.17;0.10;;;21.40;29.60;;;;;;5026728;28;20037;-70
2022/04/01 07:18:33;;;;;;;0.80;0.10;;;21.50;29.60;;;;;;5057862;28;20052;-69
2022/04/01 07:20:59;;;;;;;0.93;0.10;;;21.50;29.80;;;;;;5029096;28;20030;-75
2022/04/01 07:23:26;;;;;;;0.40;0.10;;;21.50;30.00;;;;;;5046229;28;20402;-76
2022/04/01 07:25:51;;;;;;;0.40;0.00;;;21.50;30.00;;;;;;5044406;28;20096;-75
2022/04/01 07:28:20;;;;;;;1.40;0.10;;;21.60;30.00;;;;;;5011363;28;20042;-76
2022/04/01 07:30:46;;;;;;;0.50;0.10;;;21.60;30.00;;;;;;5018355;28;20038;-74
2022/04/01 07:33:11;;;;;;;0.45;0.10;;;21.60;30.10;;;;;;5007783;28;20049;-77
2022/04/01 07:35:37;;;;;;;0.40;0.10;;;21.60;30.20;;;;;;5010290;28;20048;-77
2022/04/01 07:38:06;;;;;;;1.83;0.10;;;21.60;30.30;;;;;;5019476;28;20045;-77
2022/04/01 07:40:32;;;;;;;1.40;0.32;;;21.50;30.10;;;;;;5010210;28;20041;-77
2022/04/01 07:42:58;;;;;;;1.50;0.10;;;21.50;30.00;;;;;;5012067;28;20041;-77
2022/04/01 07:45:24;;;;;;;2.63;0.10;;;21.50;30.00;;;;;;5010811;28;20034;-67
2022/04/01 07:47:51;;;;;;;2.42;0.20;;;21.40;30.00;;;;;;5008643;28;20425;-72
2022/04/01 07:50:20;;;;;;;1.98;0.10;;;21.40;30.00;;;;;;5008096;28;20038;-71
2022/04/01 07:52:46;;;;;;;1.48;0.13;;;21.40;30.00;;;;;;5043140;28;20066;-70
2022/04/01 07:55:15;;;;;;;2.33;0.20;;;21.30;30.00;;;;;;5008622;28;20169;-70
2022/04/01 07:57:42;;;;;;;0.40;0.10;;;21.20;30.00;;;;;;5007050;28;20041;-70
2022/04/01 08:00:08;;;;;;;1.50;0.10;;;21.10;30.10;;;;;;5041568;28;20045;-70
2022/04/01 08:02:34;;;;;;;0.65;0.05;;;21.10;30.20;;;;;;5016070;28;20112;-72
2022/04/01 08:05:00;;;;;;;3.20;0.15;;;21.00;30.30;;;;;;5006071;28;20477;-74
2022/04/01 08:07:27;;;;;;;2.17;0.10;;;20.90;30.50;;;;;;5007308;28;20449;-71
2022/04/01 08:09:53;;;;;;;2.83;0.30;;;20.80;30.80;;;;;;5007170;28;20036;-74
2022/04/01 08:12:19;;;;;;;3.20;0.05;;;20.80;31.10;;;;;;5023188;28;20112;-68
2022/04/01 08:14:45;;;;;;;1.75;0.20;;;20.70;31.30;;;;;;5006644;28;20045;-69
2022/04/01 08:17:14;;;;;;;3.88;0.20;;;20.60;31.30;;;;;;5012559;28;20399;-68
2022/04/01 08:19:41;;;;;;;1.10;0.10;;;20.60;31.40;;;;;;5011339;28;20049;-68
2022/04/01 08:22:07;;;;;;;2.92;0.13;;;20.50;31.40;;;;;;5016941;28;20050;-69
2022/04/01 08:24:33;;;;;;;0.85;0.20;;;20.40;31.60;;;;;;5044233;28;20088;-68
2022/04/01 08:27:00;;;;;;;0.30;0.10;;;20.40;31.80;;;;;;5007944;28;20898;-69
2022/04/01 08:29:27;;;;;;;1.60;0.10;;;20.30;31.90;;;;;;5009823;28;20042;-68
2022/04/01 08:31:54;;;;;;;1.13;0.10;;;20.20;32.10;;;;;;5012903;28;20053;-69
2022/04/01 08:34:19;;;;;;;1.17;0.10;;;20.20;32.20;;;;;;5011150;28;20065;-68
2022/04/01 08:36:45;;;;;;;2.17;0.10;;;20.10;32.10;;;;;;5011037;28;20061;-69
2022/04/01 08:39:11;;;;;;;5.28;0.73;;;20.00;32.20;;;;;;5012551;28;20041;-70
2022/04/01 08:41:37;;;;;;;5.07;0.50;;;20.00;32.20;;;;;;5011623;28;20053;-69
2022/04/01 08:44:06;;;;;;;3.53;0.30;;;20.00;32.10;;;;;;5045191;28;20059;-70
2022/04/01 08:46:32;;;;;;;1.35;0.20;;;19.90;32.10;;;;;;5012013;28;20052;-70
2022/04/01 08:48:59;;;;;;;3.10;0.30;;;19.90;32.20;;;;;;5008683;28;20044;-70
2022/04/01 08:51:28;;;;;;;2.92;0.30;;;19.80;32.20;;;;;;5006590;28;20053;-70
2022/04/01 08:53:54;;;;;;;2.55;0.32;;;19.90;32.20;;;;;;5014318;28;20050;-70
2022/04/01 08:56:20;;;;;;;1.70;0.32;;;19.90;32.00;;;;;;5013466;28;20057;-69
2022/04/01 08:58:46;;;;;;;1.67;0.43;;;20.00;31.80;;;;;;5011580;28;20052;-67
2022/04/01 09:01:13;;;;;;;1.60;0.30;;;20.10;31.80;;;;;;5008927;28;20369;-70
2022/04/01 09:03:43;;;;;;;2.35;0.30;;;20.30;31.90;;;;;;5008659;28;20034;-70
2022/04/01 09:06:09;;;;;;;2.88;0.30;;;20.50;31.70;;;;;;5012995;28;20091;-69
2022/04/01 09:08:37;;;;;;;2.63;0.40;;;20.50;31.50;;;;;;5008595;28;20038;-70
2022/04/01 09:16:28;;;;;;;1.30;0.40;;;20.60;31.50;;;;;;5114892;27;1171466;-69
2022/04/01 09:18:56;;;;;;;1.58;0.30;;;20.70;31.20;;;;;;5118641;27;20497;-69
2022/04/01 09:21:27;;;;;;;1.33;0.30;;;20.60;31.10;;;;;;5116603;27;20046;-69
2022/04/01 09:23:53;;;;;;;2.35;0.40;;;20.70;31.40;;;;;;5110100;27;20129;-72
2022/04/01 09:26:21;;;;;;;1.13;0.20;;;20.60;31.30;;;;;;5115936;27;20034;-71
2022/04/01 09:28:50;;;;;;;1.05;0.28;;;20.50;31.50;;;;;;5099443;27;20038;-71
2022/04/01 09:31:16;;;;;;;4.30;0.32;;;20.50;31.70;;;;;;5110106;27;20050;-73
2022/04/01 09:36:26;;;;;;;0.90;0.32;;;20.40;31.80;;;;;;5104459;27;20508;-73
2022/04/01 09:41:38;;;;;;;1.48;0.82;;;20.20;32.30;;;;;;5064206;27;20465;-68
2022/04/01 09:44:07;;;;;;;0.77;0.40;;;20.10;32.50;;;;;;5062452;28;20149;-72
2022/04/01 09:46:34;;;;;;;1.20;0.40;;;20.10;32.80;;;;;;5059652;28;20048;-70
2022/04/01 09:49:00;;;;;;;1.40;0.30;;;20.10;32.90;;;;;;5080730;28;20040;-71
2022/04/01 09:51:31;;;;;;;1.65;0.40;;;20.00;33.00;;;;;;5062977;28;20057;-71
2022/04/01 09:54:02;;;;;;;2.38;0.40;;;20.00;33.20;;;;;;5081469;28;20057;-68
2022/04/01 09:56:36;;;;;;;2.22;0.50;;;19.90;33.30;;;;;;5066186;28;20510;-74
2022/04/01 09:59:05;;;;;;;1.20;0.30;;;19.90;33.80;;;;;;5062910;28;20047;-72
2022/04/01 10:01:33;;;;;;;3.08;0.63;;;19.80;33.70;;;;;;5060454;28;20186;-71
2022/04/01 10:03:59;;;;;;;1.02;0.38;;;19.80;33.80;;;;;;5079912;28;20040;-72
2022/04/01 10:06:28;;;;;;;2.10;0.60;;;19.70;33.80;;;;;;5059499;28;20106;-73
2022/04/01 10:08:56;;;;;;;4.03;0.50;;;19.70;33.80;;;;;;5058464;28;20090;-73
2022/04/01 10:11:23;;;;;;;1.65;0.40;;;19.70;33.80;;;;;;5066245;28;20867;-69
2022/04/01 10:13:50;;;;;;;2.35;0.68;;;19.60;33.80;;;;;;5062509;28;20040;-73
2022/04/01 10:16:17;;;;;;;1.77;0.90;;;19.50;34.00;;;;;;5061245;28;20036;-69
2022/04/01 10:18:47;;;;;;;3.33;1.25;;;19.50;33.90;;;;;;5064694;28;20039;-71
2022/04/01 10:21:17;;;;;;;1.88;0.70;;;19.50;33.90;;;;;;5078082;28;20412;-67
2022/04/01 10:23:52;;;;;;;3.65;1.00;;;19.50;33.90;;;;;;5063448;28;20036;-73
2022/04/01 10:26:21;;;;;;;2.00;0.60;;;19.50;33.90;;;;;;5076644;28;20119;-75
2022/04/01 10:28:50;;;;;;;3.13;0.90;;;19.60;34.00;;;;;;5063430;28;20036;-69
2022/04/01 10:31:16;;;;;;;2.15;0.70;;;19.50;33.90;;;;;;5081060;28;20044;-73
2022/04/01 10:33:42;;;;;;;4.18;0.80;;;19.50;33.90;;;;;;5059922;28;20036;-74
2022/04/01 10:39:06;;;;;;;3.00;1.08;;;19.50;33.70;;;;;;5086255;27;1868939;-75
2022/04/01 10:41:32;;;;;;;4.03;0.70;;;19.60;33.20;;;;;;5121692;27;20043;-75
2022/04/01 10:44:00;;;;;;;3.88;0.90;;;19.60;33.10;;;;;;5112105;27;20041;-73
2022/04/01 10:46:27;;;;;;;2.97;0.95;;;19.80;32.90;;;;;;5114995;27;20047;-71
2022/04/01 10:54:43;;;;;;;4.07;1.02;;;20.00;32.70;;;;;;5060098;28;20818;-73
2022/04/01 10:57:12;;;;;;;1.83;0.65;;;20.30;31.90;;;;;;5068782;28;20090;-71
2022/04/01 10:59:42;;;;;;;2.83;1.00;;;20.50;31.80;;;;;;5068175;28;20052;-70
2022/04/01 11:02:10;;;;;;;2.88;1.38;;;20.60;31.60;;;;;;5070528;28;20507;-73
2022/04/01 11:04:39;;;;;;;6.35;0.90;;;20.70;31.40;;;;;;5051724;28;20554;-70
2022/04/01 11:12:34;;;;;;;2.35;0.70;;;20.60;31.40;;;;;;5109237;27;1167582;-73
2022/04/01 11:23:03;;;;;;;2.45;0.55;;;20.60;31.50;;;;;;5090065;27;20483;-71
2022/04/01 11:28:15;;;;;;;4.18;0.57;;;20.40;32.00;;;;;;5098115;27;20440;-70
2022/04/01 11:33:22;;;;;;;2.47;0.80;;;20.30;32.40;;;;;;5100831;27;20427;-74
2022/04/01 11:35:50;;;;;;;1.63;0.60;;;20.20;33.10;;;;;;5093795;28;20055;-71
2022/04/01 11:38:21;;;;;;;3.53;0.60;;;20.20;33.50;;;;;;5105796;28;20048;-74
2022/04/01 11:40:50;;;;;;;1.67;0.45;;;20.20;33.90;;;;;;5090326;28;20491;-75
2022/04/01 11:43:18;;;;;;;4.07;0.68;;;20.10;33.90;;;;;;5111060;28;20048;-70
2022/04/01 11:45:51;;;;;;;2.53;0.40;;;20.10;35.00;;;;;;5095412;28;20048;-69
2022/04/01 11:53:39;;;;;;;6.38;0.52;;;20.00;34.60;;;;;;5069782;28;20380;-69
2022/04/01 11:56:08;;;;;;;1.70;0.30;;;19.90;34.50;;;;;;5053687;28;20037;-74
2022/04/01 11:58:58;;;;;;;5.35;0.30;;;19.90;34.40;;;;;;5053235;28;20136;-67
2022/04/01 12:01:29;;;;;;;1.98;0.30;;;19.80;35.10;;;;;;5061553;28;20556;-69
2022/04/01 12:04:11;;;;;;;;;;;19.80;35.00;;;;;;5061556;28;20120;-70
2022/04/01 12:09:31;;;;;;;0.68;0.20;;;19.80;34.80;;;;;;5055017;28;20064;-73
2022/04/01 12:12:01;;;;;;;1.75;0.30;;;19.80;35.00;;;;;;5050065;28;20075;-75
2022/04/01 12:14:27;;;;;;;2.00;0.20;;;19.80;35.00;;;;;;5069840;28;20041;-75
2022/04/01 12:16:52;;;;;;;1.77;0.20;;;19.80;34.80;;;;;;5041303;28;20029;-74
2022/04/01 12:19:20;;;;;;;1.67;0.40;;;19.80;34.80;;;;;;5051075;28;20035;-74
2022/04/01 12:21:59;;;;;;;0.85;0.28;;;19.80;34.80;;;;;;5055774;28;20044;-74
2022/04/01 12:24:27;;;;;;;1.67;0.30;;;19.80;34.60;;;;;;5057120;28;20182;-73
2022/04/01 12:26:53;;;;;;;2.05;0.20;;;19.80;34.70;;;;;;5054170;28;20045;-76
2022/04/01 12:29:21;;;;;;;2.00;0.20;;;19.80;34.60;;;;;;5068372;28;20037;-69
2022/04/01 12:31:50;;;;;;;1.25;0.20;;;19.80;34.60;;;;;;5056787;28;20112;-75
2022/04/01 12:34:16;;;;;;;1.20;0.17;;;19.80;34.50;;;;;;5059741;28;20503;-74
2022/04/01 12:36:41;;;;;;;0.70;0.10;;;19.70;34.20;;;;;;5054369;28;20033;-74
2022/04/01 12:39:10;;;;;;;3.08;0.20;;;19.70;34.10;;;;;;5068775;28;20240;-73
2022/04/01 12:41:49;;;;;;;2.78;0.20;;;19.70;34.00;;;;;;5077040;28;20200;-74
2022/04/01 12:44:14;;;;;;;1.88;0.20;;;19.70;33.90;;;;;;5073365;28;20611;-75
2022/04/01 12:46:47;;;;;;;0.50;0.20;;;19.70;33.90;;;;;;5065411;28;20029;-69
2022/04/01 12:49:15;;;;;;;4.53;0.30;;;19.70;33.70;;;;;;5048115;28;20563;-73
2022/04/01 12:51:52;;;;;;;1.48;0.20;;;19.70;33.60;;;;;;5047904;28;20129;-72
2022/04/01 12:57:08;;;;;;;0.63;0.10;;;19.70;33.70;;;;;;5100911;27;20448;-73
2022/04/01 13:02:20;;;;;;;0.70;0.10;;;19.90;33.50;;;;;;5089498;27;20494;-75
2022/04/01 13:07:35;;;;;;;0.35;0.10;;;20.10;33.20;;;;;;5079942;27;21168;-75
2022/04/01 13:12:43;;;;;;;2.25;0.20;;;20.20;32.90;;;;;;5108050;27;20793;-76
2022/04/01 13:20:38;;;;;;;0.30;0.10;;;20.70;32.20;;;;;;5061112;27;20868;-75
2022/04/01 13:23:06;;;;;;;1.45;0.28;;;20.80;31.30;;;;;;5066257;28;20083;-75
2022/04/01 13:25:33;;;;;;;1.63;0.28;;;20.80;30.40;;;;;;5047395;28;20070;-75
2022/04/01 13:28:00;;;;;;;1.25;0.30;;;20.70;30.30;;;;;;5050892;28;20033;-75
2022/04/01 13:30:26;;;;;;;0.70;0.10;;;20.60;30.20;;;;;;5050881;28;20033;-74
2022/04/01 13:32:52;;;;;;;0.60;0.17;;;20.60;30.00;;;;;;5052847;28;20041;-75
2022/04/01 13:35:18;;;;;;;1.33;0.20;;;20.50;29.90;;;;;;5050697;28;20041;-75
2022/04/01 13:37:44;;;;;;;1.85;0.15;;;20.50;29.90;;;;;;5051238;28;20365;-75
2022/04/01 13:40:11;;;;;;;0.50;0.10;;;20.60;29.70;;;;;;5049341;28;20547;-75
2022/04/01 13:42:37;;;;;;;0.45;0.13;;;20.60;29.40;;;;;;5055651;28;20037;-76
2022/04/01 13:45:04;;;;;;;1.52;0.28;;;20.70;29.20;;;;;;5050317;28;20504;-74
2022/04/01 13:47:29;;;;;;;1.35;0.20;;;20.80;29.00;;;;;;5051330;28;20160;-74
2022/04/01 13:49:55;;;;;;;1.00;0.10;;;21.00;28.80;;;;;;5055217;28;20235;-75
2022/04/01 13:52:21;;;;;;;1.15;0.20;;;21.10;28.70;;;;;;5057281;28;20085;-73
2022/04/01 13:54:47;;;;;;;2.13;0.17;;;21.30;28.70;;;;;;5051716;28;20040;-76
2022/04/01 13:57:14;;;;;;;0.43;0.10;;;21.40;28.60;;;;;;5056250;28;20036;-76
2022/04/01 13:59:44;;;;;;;0.90;0.10;;;21.50;28.70;;;;;;5053473;28;20500;-74
2022/04/01 14:02:12;;;;;;;0.47;0.10;;;21.60;28.70;;;;;;5051271;28;20033;-72
2022/04/01 14:04:38;;;;;;;1.05;0.20;;;21.70;28.70;;;;;;5061967;28;20272;-76
2022/04/01 14:07:08;;;;;;;0.93;0.32;;;21.80;28.70;;;;;;5061453;28;20037;-75
2022/04/01 14:09:36;;;;;;;0.22;0.10;;;21.90;28.70;;;;;;5061402;28;20093;-76
2022/04/01 14:12:03;;;;;;;0.90;0.10;;;21.90;28.80;;;;;;5062356;28;20045;-73
2022/04/01 14:14:28;;;;;;;0.43;0.13;;;21.90;28.80;;;;;;5061364;28;20041;-73
2022/04/01 14:16:54;;;;;;;0.38;0.13;;;21.80;28.80;;;;;;5060632;28;20370;-76
2022/04/01 14:19:21;;;;;;;0.43;0.10;;;21.80;29.00;;;;;;5057149;28;20057;-76
2022/04/01 14:21:47;;;;;;;0.43;0.10;;;21.70;29.10;;;;;;5059551;28;20041;-73
2022/04/01 14:24:13;;;;;;;1.23;0.17;;;21.70;29.20;;;;;;5058844;28;20094;-76
2022/04/01 14:26:39;;;;;;;2.40;0.10;;;21.50;29.20;;;;;;5059827;28;20040;-76